sensor_id;sensor_type;location;lat;lon;timestamp;P1;durP1;ratioP1;P2;durP2;ratioP2
26822;SDS011;14852;51.910;8.878;2023-03-24T00:01:13;3.58;;;1.73;;
26822;SDS011;14852;51.910;8.878;2023-03-24T00:03:39;2.72;;;1.67;;
26822;SDS011;14852;51.910;8.878;2023-03-24T00:06:05;2.03;;;1.55;;
26822;SDS011;14852;51.910;8.878;2023-03-24T00:08:33;4.38;;;2.00;;
26822;SDS011;14852;51.910;8.878;2023-03-24T00:11:01;3.33;;;1.85;;
26822;SDS011;14852;51.910;8.878;2023-03-24T00:13:31;3.03;;;1.58;;
26822;SDS011;14852;51.910;8.878;2023-03-24T00:16:09;2.00;;;1.58;;
26822;SDS011;14852;51.910;8.878;2023-03-24T00:18:40;5.53;;;2.03;;
26822;SDS011;14852;51.910;8.878;2023-03-24T00:21:06;2.75;;;1.63;;
26822;SDS011;14852;51.910;8.878;2023-03-24T00:23:33;2.85;;;1.65;;
26822;SDS011;14852;51.910;8.878;2023-03-24T00:26:04;2.50;;;1.48;;
26822;SDS011;14852;51.910;8.878;2023-03-24T00:28:40;2.05;;;1.70;;
26822;SDS011;14852;51.910;8.878;2023-03-24T00:31:12;3.47;;;1.95;;
26822;SDS011;14852;51.910;8.878;2023-03-24T00:33:39;3.70;;;1.75;;
26822;SDS011;14852;51.910;8.878;2023-03-24T00:36:07;4.25;;;2.03;;
26822;SDS011;14852;51.910;8.878;2023-03-24T00:38:39;3.83;;;2.00;;
26822;SDS011;14852;51.910;8.878;2023-03-24T00:41:06;3.08;;;2.10;;
26822;SDS011;14852;51.910;8.878;2023-03-24T00:43:34;2.13;;;1.42;;
26822;SDS011;14852;51.910;8.878;2023-03-24T00:46:02;1.73;;;1.50;;
26822;SDS011;14852;51.910;8.878;2023-03-24T00:48:36;3.83;;;2.05;;
26822;SDS011;14852;51.910;8.878;2023-03-24T00:51:03;2.08;;;1.75;;
26822;SDS011;14852;51.910;8.878;2023-03-24T00:53:32;2.00;;;1.75;;
26822;SDS011;14852;51.910;8.878;2023-03-24T00:55:59;4.60;;;2.00;;
26822;SDS011;14852;51.910;8.878;2023-03-24T00:58:25;3.33;;;1.83;;
26822;SDS011;14852;51.910;8.878;2023-03-24T01:00:54;2.00;;;1.58;;
26822;SDS011;14852;51.910;8.878;2023-03-24T01:03:22;2.40;;;1.63;;
26822;SDS011;14852;51.910;8.878;2023-03-24T01:05:52;2.30;;;1.52;;
26822;SDS011;14852;51.910;8.878;2023-03-24T01:08:21;2.90;;;1.77;;
26822;SDS011;14852;51.910;8.878;2023-03-24T01:10:50;5.15;;;1.73;;
26822;SDS011;14852;51.910;8.878;2023-03-24T01:13:26;1.88;;;1.48;;
26822;SDS011;14852;51.910;8.878;2023-03-24T01:15:54;2.38;;;1.50;;
26822;SDS011;14852;51.910;8.878;2023-03-24T01:18:20;4.78;;;1.70;;
26822;SDS011;14852;51.910;8.878;2023-03-24T01:20:51;2.00;;;1.30;;
26822;SDS011;14852;51.910;8.878;2023-03-24T01:23:20;2.13;;;1.45;;
26822;SDS011;14852;51.910;8.878;2023-03-24T01:25:49;2.13;;;1.40;;
26822;SDS011;14852;51.910;8.878;2023-03-24T01:28:21;1.80;;;1.45;;
26822;SDS011;14852;51.910;8.878;2023-03-24T01:30:49;2.58;;;1.75;;
26822;SDS011;14852;51.910;8.878;2023-03-24T01:33:17;2.10;;;1.65;;
26822;SDS011;14852;51.910;8.878;2023-03-24T01:35:43;4.18;;;1.30;;
26822;SDS011;14852;51.910;8.878;2023-03-24T01:38:10;2.20;;;1.50;;
26822;SDS011;14852;51.910;8.878;2023-03-24T01:40:39;1.20;;;1.10;;
26822;SDS011;14852;51.910;8.878;2023-03-24T01:43:15;1.75;;;1.20;;
26822;SDS011;14852;51.910;8.878;2023-03-24T01:48:34;2.30;;;1.20;;
26822;SDS011;14852;51.910;8.878;2023-03-24T01:51:30;1.75;;;1.50;;
26822;SDS011;14852;51.910;8.878;2023-03-24T01:54:07;1.40;;;1.30;;
26822;SDS011;14852;51.910;8.878;2023-03-24T01:57:10;3.40;;;1.70;;
26822;SDS011;14852;51.910;8.878;2023-03-24T01:59:46;3.30;;;1.40;;
26822;SDS011;14852;51.910;8.878;2023-03-24T02:05:09;2.10;;;1.30;;
26822;SDS011;14852;51.910;8.878;2023-03-24T02:07:45;2.87;;;1.50;;
26822;SDS011;14852;51.910;8.878;2023-03-24T02:10:35;3.05;;;1.50;;
26822;SDS011;14852;51.910;8.878;2023-03-24T02:13:02;1.60;;;1.38;;
26822;SDS011;14852;51.910;8.878;2023-03-24T02:15:29;2.63;;;1.63;;
26822;SDS011;14852;51.910;8.878;2023-03-24T02:18:01;4.78;;;1.70;;
26822;SDS011;14852;51.910;8.878;2023-03-24T02:20:59;1.77;;;1.45;;
26822;SDS011;14852;51.910;8.878;2023-03-24T02:24:23;1.25;;;1.15;;
26822;SDS011;14852;51.910;8.878;2023-03-24T02:27:04;2.72;;;2.17;;
26822;SDS011;14852;51.910;8.878;2023-03-24T02:35:58;2.83;;;1.60;;
26822;SDS011;14852;51.910;8.878;2023-03-24T02:48:00;2.35;;;1.50;;
26822;SDS011;14852;51.910;8.878;2023-03-24T02:51:02;2.75;;;1.90;;
26822;SDS011;14852;51.910;8.878;2023-03-24T02:56:49;2.33;;;1.67;;
26822;SDS011;14852;51.910;8.878;2023-03-24T03:02:58;2.00;;;1.70;;
26822;SDS011;14852;51.910;8.878;2023-03-24T03:05:35;1.92;;;1.73;;
26822;SDS011;14852;51.910;8.878;2023-03-24T03:08:09;2.00;;;1.80;;
26822;SDS011;14852;51.910;8.878;2023-03-24T03:10:41;16.77;;;3.15;;
26822;SDS011;14852;51.910;8.878;2023-03-24T03:13:15;2.67;;;1.80;;
26822;SDS011;14852;51.910;8.878;2023-03-24T03:15:57;2.95;;;2.38;;
26822;SDS011;14852;51.910;8.878;2023-03-24T03:18:32;2.95;;;2.15;;
26822;SDS011;14852;51.910;8.878;2023-03-24T03:21:10;1.60;;;1.50;;
26822;SDS011;14852;51.910;8.878;2023-03-24T03:23:46;4.32;;;2.20;;
26822;SDS011;14852;51.910;8.878;2023-03-24T03:26:18;3.28;;;2.05;;
26822;SDS011;14852;51.910;8.878;2023-03-24T03:28:49;2.53;;;2.00;;
26822;SDS011;14852;51.910;8.878;2023-03-24T03:31:30;3.63;;;2.03;;
26822;SDS011;14852;51.910;8.878;2023-03-24T03:34:08;2.85;;;2.20;;
26822;SDS011;14852;51.910;8.878;2023-03-24T03:39:39;3.30;;;2.20;;
26822;SDS011;14852;51.910;8.878;2023-03-24T03:42:18;4.22;;;2.10;;
26822;SDS011;14852;51.910;8.878;2023-03-24T03:44:45;2.15;;;1.90;;
26822;SDS011;14852;51.910;8.878;2023-03-24T03:47:11;3.17;;;1.65;;
26822;SDS011;14852;51.910;8.878;2023-03-24T03:49:42;2.42;;;1.80;;
26822;SDS011;14852;51.910;8.878;2023-03-24T03:52:09;4.93;;;2.33;;
26822;SDS011;14852;51.910;8.878;2023-03-24T03:54:35;2.92;;;1.83;;
26822;SDS011;14852;51.910;8.878;2023-03-24T03:57:02;2.33;;;1.70;;
26822;SDS011;14852;51.910;8.878;2023-03-24T03:59:34;2.25;;;1.80;;
26822;SDS011;14852;51.910;8.878;2023-03-24T04:02:31;3.22;;;2.38;;
26822;SDS011;14852;51.910;8.878;2023-03-24T04:14:49;2.95;;;2.15;;
26822;SDS011;14852;51.910;8.878;2023-03-24T04:21:45;3.08;;;2.38;;
26822;SDS011;14852;51.910;8.878;2023-03-24T04:24:32;3.13;;;2.28;;
26822;SDS011;14852;51.910;8.878;2023-03-24T04:30:14;5.00;;;2.53;;
26822;SDS011;14852;51.910;8.878;2023-03-24T04:33:05;2.75;;;2.47;;
26822;SDS011;14852;51.910;8.878;2023-03-24T04:35:55;3.05;;;2.42;;
26822;SDS011;14852;51.910;8.878;2023-03-24T04:39:03;2.90;;;2.53;;
26822;SDS011;14852;51.910;8.878;2023-03-24T04:44:17;3.05;;;2.10;;
26822;SDS011;14852;51.910;8.878;2023-03-24T04:47:03;2.58;;;2.03;;
26822;SDS011;14852;51.910;8.878;2023-03-24T04:49:31;2.88;;;2.55;;
26822;SDS011;14852;51.910;8.878;2023-03-24T04:52:03;2.70;;;2.10;;
26822;SDS011;14852;51.910;8.878;2023-03-24T04:54:32;5.07;;;2.15;;
26822;SDS011;14852;51.910;8.878;2023-03-24T04:57:03;2.72;;;2.05;;
26822;SDS011;14852;51.910;8.878;2023-03-24T04:59:38;2.90;;;1.80;;
26822;SDS011;14852;51.910;8.878;2023-03-24T05:02:05;2.72;;;2.13;;
26822;SDS011;14852;51.910;8.878;2023-03-24T05:04:49;3.17;;;1.73;;
26822;SDS011;14852;51.910;8.878;2023-03-24T05:07:22;2.38;;;1.65;;
26822;SDS011;14852;51.910;8.878;2023-03-24T05:09:51;3.03;;;1.88;;
26822;SDS011;14852;51.910;8.878;2023-03-24T05:12:17;2.50;;;1.83;;
26822;SDS011;14852;51.910;8.878;2023-03-24T05:15:09;3.92;;;2.10;;
26822;SDS011;14852;51.910;8.878;2023-03-24T05:17:36;3.65;;;2.15;;
26822;SDS011;14852;51.910;8.878;2023-03-24T05:20:02;2.15;;;1.80;;
26822;SDS011;14852;51.910;8.878;2023-03-24T05:22:35;4.35;;;2.15;;
26822;SDS011;14852;51.910;8.878;2023-03-24T05:25:02;2.33;;;1.98;;
26822;SDS011;14852;51.910;8.878;2023-03-24T05:27:28;2.67;;;1.88;;
26822;SDS011;14852;51.910;8.878;2023-03-24T05:29:54;2.90;;;1.75;;
26822;SDS011;14852;51.910;8.878;2023-03-24T05:32:24;2.88;;;1.90;;
26822;SDS011;14852;51.910;8.878;2023-03-24T05:34:50;4.47;;;2.92;;
26822;SDS011;14852;51.910;8.878;2023-03-24T05:37:22;2.85;;;2.08;;
26822;SDS011;14852;51.910;8.878;2023-03-24T05:39:50;3.03;;;2.28;;
26822;SDS011;14852;51.910;8.878;2023-03-24T05:42:42;2.55;;;2.35;;
26822;SDS011;14852;51.910;8.878;2023-03-24T05:45:10;3.40;;;2.47;;
26822;SDS011;14852;51.910;8.878;2023-03-24T05:47:38;3.38;;;2.40;;
26822;SDS011;14852;51.910;8.878;2023-03-24T05:50:04;3.53;;;2.70;;
26822;SDS011;14852;51.910;8.878;2023-03-24T05:52:31;2.83;;;2.38;;
26822;SDS011;14852;51.910;8.878;2023-03-24T05:55:14;3.30;;;2.53;;
26822;SDS011;14852;51.910;8.878;2023-03-24T05:57:41;3.03;;;2.33;;
26822;SDS011;14852;51.910;8.878;2023-03-24T06:00:20;1.95;;;1.70;;
26822;SDS011;14852;51.910;8.878;2023-03-24T06:02:56;2.47;;;1.83;;
26822;SDS011;14852;51.910;8.878;2023-03-24T06:05:34;1.75;;;1.40;;
26822;SDS011;14852;51.910;8.878;2023-03-24T06:08:00;2.42;;;1.60;;
26822;SDS011;14852;51.910;8.878;2023-03-24T06:10:30;2.13;;;1.58;;
26822;SDS011;14852;51.910;8.878;2023-03-24T06:12:57;1.90;;;1.48;;
26822;SDS011;14852;51.910;8.878;2023-03-24T06:15:23;1.85;;;1.50;;
26822;SDS011;14852;51.910;8.878;2023-03-24T06:17:52;2.30;;;1.58;;
26822;SDS011;14852;51.910;8.878;2023-03-24T06:20:25;2.10;;;1.52;;
26822;SDS011;14852;51.910;8.878;2023-03-24T06:23:02;2.33;;;1.67;;
26822;SDS011;14852;51.910;8.878;2023-03-24T06:25:39;2.25;;;1.50;;
26822;SDS011;14852;51.910;8.878;2023-03-24T06:28:19;2.20;;;1.67;;
26822;SDS011;14852;51.910;8.878;2023-03-24T06:30:47;2.25;;;1.65;;
26822;SDS011;14852;51.910;8.878;2023-03-24T06:33:19;1.48;;;1.23;;
26822;SDS011;14852;51.910;8.878;2023-03-24T06:35:46;2.35;;;1.58;;
26822;SDS011;14852;51.910;8.878;2023-03-24T06:38:14;2.17;;;1.95;;
26822;SDS011;14852;51.910;8.878;2023-03-24T06:40:42;1.75;;;1.63;;
26822;SDS011;14852;51.910;8.878;2023-03-24T06:43:08;2.42;;;2.17;;
26822;SDS011;14852;51.910;8.878;2023-03-24T06:45:36;2.05;;;1.85;;
26822;SDS011;14852;51.910;8.878;2023-03-24T06:48:04;2.40;;;2.20;;
26822;SDS011;14852;51.910;8.878;2023-03-24T06:50:31;5.03;;;2.78;;
26822;SDS011;14852;51.910;8.878;2023-03-24T06:53:03;3.53;;;2.47;;
26822;SDS011;14852;51.910;8.878;2023-03-24T06:55:31;2.60;;;2.40;;
26822;SDS011;14852;51.910;8.878;2023-03-24T06:57:57;3.88;;;2.58;;
26822;SDS011;14852;51.910;8.878;2023-03-24T07:00:23;3.13;;;2.47;;
26822;SDS011;14852;51.910;8.878;2023-03-24T07:03:01;2.60;;;2.40;;
26822;SDS011;14852;51.910;8.878;2023-03-24T07:05:27;4.05;;;2.38;;
26822;SDS011;14852;51.910;8.878;2023-03-24T07:07:53;2.75;;;2.28;;
26822;SDS011;14852;51.910;8.878;2023-03-24T07:13:04;3.33;;;2.20;;
26822;SDS011;14852;51.910;8.878;2023-03-24T07:15:33;3.00;;;1.80;;
26822;SDS011;14852;51.910;8.878;2023-03-24T07:17:59;2.67;;;1.67;;
26822;SDS011;14852;51.910;8.878;2023-03-24T07:20:37;2.50;;;1.70;;
26822;SDS011;14852;51.910;8.878;2023-03-24T07:23:10;3.85;;;1.75;;
26822;SDS011;14852;51.910;8.878;2023-03-24T07:26:03;4.38;;;1.65;;
26822;SDS011;14852;51.910;8.878;2023-03-24T07:28:51;2.58;;;1.30;;
26822;SDS011;14852;51.910;8.878;2023-03-24T07:31:25;1.95;;;1.33;;
26822;SDS011;14852;51.910;8.878;2023-03-24T07:33:58;2.88;;;1.92;;
26822;SDS011;14852;51.910;8.878;2023-03-24T07:36:24;2.53;;;1.50;;
26822;SDS011;14852;51.910;8.878;2023-03-24T07:38:50;4.38;;;1.95;;
26822;SDS011;14852;51.910;8.878;2023-03-24T07:41:23;5.38;;;2.30;;
26822;SDS011;14852;51.910;8.878;2023-03-24T07:43:57;3.45;;;2.20;;
26822;SDS011;14852;51.910;8.878;2023-03-24T07:46:29;3.00;;;1.92;;
26822;SDS011;14852;51.910;8.878;2023-03-24T07:48:55;3.22;;;1.90;;
26822;SDS011;14852;51.910;8.878;2023-03-24T07:51:21;5.40;;;2.22;;
26822;SDS011;14852;51.910;8.878;2023-03-24T07:53:51;3.30;;;2.10;;
26822;SDS011;14852;51.910;8.878;2023-03-24T07:56:28;5.57;;;2.65;;
26822;SDS011;14852;51.910;8.878;2023-03-24T07:58:56;3.92;;;2.17;;
26822;SDS011;14852;51.910;8.878;2023-03-24T08:01:41;3.22;;;1.80;;
26822;SDS011;14852;51.910;8.878;2023-03-24T08:04:11;3.00;;;1.92;;
26822;SDS011;14852;51.910;8.878;2023-03-24T08:07:00;4.05;;;2.28;;
26822;SDS011;14852;51.910;8.878;2023-03-24T08:09:27;4.43;;;2.65;;
26822;SDS011;14852;51.910;8.878;2023-03-24T08:11:53;4.60;;;2.55;;
26822;SDS011;14852;51.910;8.878;2023-03-24T08:14:19;3.60;;;2.05;;
26822;SDS011;14852;51.910;8.878;2023-03-24T08:16:45;3.60;;;2.60;;
26822;SDS011;14852;51.910;8.878;2023-03-24T08:19:10;4.28;;;2.20;;
26822;SDS011;14852;51.910;8.878;2023-03-24T08:21:36;4.03;;;2.10;;
26822;SDS011;14852;51.910;8.878;2023-03-24T08:24:02;3.70;;;2.47;;
26822;SDS011;14852;51.910;8.878;2023-03-24T08:26:28;5.57;;;2.40;;
26822;SDS011;14852;51.910;8.878;2023-03-24T08:28:55;6.55;;;2.40;;
26822;SDS011;14852;51.910;8.878;2023-03-24T08:31:20;5.43;;;2.33;;
26822;SDS011;14852;51.910;8.878;2023-03-24T08:33:46;4.22;;;2.20;;
26822;SDS011;14852;51.910;8.878;2023-03-24T08:36:12;5.55;;;2.97;;
26822;SDS011;14852;51.910;8.878;2023-03-24T08:38:38;6.03;;;2.55;;
26822;SDS011;14852;51.910;8.878;2023-03-24T08:41:04;4.60;;;2.75;;
26822;SDS011;14852;51.910;8.878;2023-03-24T08:43:32;7.15;;;2.50;;
26822;SDS011;14852;51.910;8.878;2023-03-24T08:46:00;10.23;;;3.13;;
26822;SDS011;14852;51.910;8.878;2023-03-24T08:48:27;4.50;;;2.10;;
26822;SDS011;14852;51.910;8.878;2023-03-24T08:50:54;4.55;;;2.33;;
26822;SDS011;14852;51.910;8.878;2023-03-24T08:53:20;4.82;;;2.40;;
26822;SDS011;14852;51.910;8.878;2023-03-24T08:55:46;3.80;;;2.25;;
26822;SDS011;14852;51.910;8.878;2023-03-24T08:58:16;5.68;;;2.58;;
26822;SDS011;14852;51.910;8.878;2023-03-24T09:00:45;5.55;;;2.40;;
26822;SDS011;14852;51.910;8.878;2023-03-24T09:03:13;4.30;;;2.10;;
26822;SDS011;14852;51.910;8.878;2023-03-24T09:05:46;4.70;;;2.63;;
26822;SDS011;14852;51.910;8.878;2023-03-24T09:08:13;3.85;;;2.47;;
26822;SDS011;14852;51.910;8.878;2023-03-24T09:10:41;5.55;;;2.95;;
26822;SDS011;14852;51.910;8.878;2023-03-24T09:13:07;5.10;;;2.53;;
26822;SDS011;14852;51.910;8.878;2023-03-24T09:15:34;3.72;;;2.63;;
26822;SDS011;14852;51.910;8.878;2023-03-24T09:18:00;6.53;;;3.30;;
26822;SDS011;14852;51.910;8.878;2023-03-24T09:20:26;5.13;;;2.70;;
26822;SDS011;14852;51.910;8.878;2023-03-24T09:22:52;5.65;;;2.78;;
26822;SDS011;14852;51.910;8.878;2023-03-24T09:25:20;6.53;;;2.42;;
26822;SDS011;14852;51.910;8.878;2023-03-24T09:27:47;5.43;;;2.38;;
26822;SDS011;14852;51.910;8.878;2023-03-24T09:30:14;6.65;;;2.40;;
26822;SDS011;14852;51.910;8.878;2023-03-24T09:32:42;4.22;;;2.50;;
26822;SDS011;14852;51.910;8.878;2023-03-24T09:35:08;5.40;;;3.30;;
26822;SDS011;14852;51.910;8.878;2023-03-24T09:37:35;8.38;;;3.58;;
26822;SDS011;14852;51.910;8.878;2023-03-24T09:40:03;4.63;;;2.45;;
26822;SDS011;14852;51.910;8.878;2023-03-24T09:42:33;4.78;;;2.17;;
26822;SDS011;14852;51.910;8.878;2023-03-24T09:45:12;5.38;;;3.00;;
26822;SDS011;14852;51.910;8.878;2023-03-24T09:47:47;6.38;;;2.50;;
26822;SDS011;14852;51.910;8.878;2023-03-24T09:50:23;4.47;;;2.97;;
26822;SDS011;14852;51.910;8.878;2023-03-24T09:53:07;5.05;;;2.80;;
26822;SDS011;14852;51.910;8.878;2023-03-24T09:55:50;7.15;;;2.67;;
26822;SDS011;14852;51.910;8.878;2023-03-24T09:58:16;11.05;;;3.30;;
26822;SDS011;14852;51.910;8.878;2023-03-24T10:00:44;4.07;;;2.72;;
26822;SDS011;14852;51.910;8.878;2023-03-24T10:03:17;5.95;;;3.03;;
26822;SDS011;14852;51.910;8.878;2023-03-24T10:05:49;6.43;;;3.58;;
26822;SDS011;14852;51.910;8.878;2023-03-24T10:25:59;4.75;;;3.53;;
26822;SDS011;14852;51.910;8.878;2023-03-24T10:31:51;5.18;;;3.40;;
26822;SDS011;14852;51.910;8.878;2023-03-24T10:34:27;3.25;;;2.28;;
26822;SDS011;14852;51.910;8.878;2023-03-24T10:36:57;6.63;;;2.83;;
26822;SDS011;14852;51.910;8.878;2023-03-24T10:39:29;7.05;;;3.03;;
26822;SDS011;14852;51.910;8.878;2023-03-24T10:41:55;7.30;;;2.50;;
26822;SDS011;14852;51.910;8.878;2023-03-24T10:44:23;6.35;;;2.80;;
26822;SDS011;14852;51.910;8.878;2023-03-24T10:46:52;6.60;;;2.97;;
26822;SDS011;14852;51.910;8.878;2023-03-24T10:49:22;8.40;;;2.88;;
26822;SDS011;14852;51.910;8.878;2023-03-24T10:51:49;6.72;;;3.00;;
26822;SDS011;14852;51.910;8.878;2023-03-24T10:54:27;4.78;;;2.72;;
26822;SDS011;14852;51.910;8.878;2023-03-24T11:02:18;6.25;;;2.80;;
26822;SDS011;14852;51.910;8.878;2023-03-24T11:05:00;6.25;;;2.95;;
26822;SDS011;14852;51.910;8.878;2023-03-24T11:07:47;5.50;;;2.72;;
26822;SDS011;14852;51.910;8.878;2023-03-24T11:10:16;4.40;;;2.50;;
26822;SDS011;14852;51.910;8.878;2023-03-24T11:17:47;6.13;;;2.78;;
26822;SDS011;14852;51.910;8.878;2023-03-24T11:20:32;3.65;;;2.05;;
26822;SDS011;14852;51.910;8.878;2023-03-24T11:23:02;3.63;;;2.35;;
26822;SDS011;14852;51.910;8.878;2023-03-24T11:25:41;7.05;;;2.67;;
26822;SDS011;14852;51.910;8.878;2023-03-24T11:28:17;4.75;;;2.30;;
26822;SDS011;14852;51.910;8.878;2023-03-24T11:30:51;5.18;;;2.70;;
26822;SDS011;14852;51.910;8.878;2023-03-24T11:33:20;5.18;;;2.35;;
26822;SDS011;14852;51.910;8.878;2023-03-24T11:35:52;4.80;;;2.38;;
26822;SDS011;14852;51.910;8.878;2023-03-24T11:38:19;6.90;;;2.42;;
26822;SDS011;14852;51.910;8.878;2023-03-24T11:40:59;6.45;;;2.97;;
26822;SDS011;14852;51.910;8.878;2023-03-24T11:43:29;5.15;;;2.88;;
26822;SDS011;14852;51.910;8.878;2023-03-24T11:46:00;5.63;;;2.92;;
26822;SDS011;14852;51.910;8.878;2023-03-24T11:51:22;5.53;;;2.53;;
26822;SDS011;14852;51.910;8.878;2023-03-24T11:53:56;5.10;;;2.70;;
26822;SDS011;14852;51.910;8.878;2023-03-24T12:07:58;5.82;;;2.50;;
26822;SDS011;14852;51.910;8.878;2023-03-24T12:10:54;8.35;;;3.25;;
26822;SDS011;14852;51.910;8.878;2023-03-24T12:16:06;7.10;;;3.22;;
26822;SDS011;14852;51.910;8.878;2023-03-24T12:21:56;5.28;;;2.63;;
26822;SDS011;14852;51.910;8.878;2023-03-24T12:33:58;13.23;;;3.50;;
26822;SDS011;14852;51.910;8.878;2023-03-24T12:39:56;5.35;;;2.55;;
26822;SDS011;14852;51.910;8.878;2023-03-24T12:42:46;4.53;;;2.80;;
26822;SDS011;14852;51.910;8.878;2023-03-24T12:48:15;7.40;;;2.63;;
26822;SDS011;14852;51.910;8.878;2023-03-24T12:53:43;4.80;;;2.58;;
26822;SDS011;14852;51.910;8.878;2023-03-24T12:56:45;7.82;;;2.35;;
26822;SDS011;14852;51.910;8.878;2023-03-24T12:59:27;4.05;;;2.47;;
26822;SDS011;14852;51.910;8.878;2023-03-24T13:02:21;5.85;;;2.53;;
26822;SDS011;14852;51.910;8.878;2023-03-24T13:05:04;4.80;;;2.47;;
26822;SDS011;14852;51.910;8.878;2023-03-24T13:07:39;3.97;;;2.17;;
26822;SDS011;14852;51.910;8.878;2023-03-24T13:15:54;4.65;;;2.35;;
26822;SDS011;14852;51.910;8.878;2023-03-24T13:18:35;4.43;;;2.35;;
26822;SDS011;14852;51.910;8.878;2023-03-24T13:21:07;4.47;;;2.83;;
26822;SDS011;14852;51.910;8.878;2023-03-24T13:23:45;6.47;;;2.57;;
26822;SDS011;14852;51.910;8.878;2023-03-24T13:37:44;5.28;;;2.97;;
26822;SDS011;14852;51.910;8.878;2023-03-24T13:40:22;3.20;;;2.10;;
26822;SDS011;14852;51.910;8.878;2023-03-24T13:42:58;5.10;;;2.10;;
26822;SDS011;14852;51.910;8.878;2023-03-24T13:50:38;5.55;;;1.98;;
26822;SDS011;14852;51.910;8.878;2023-03-24T13:53:18;4.68;;;2.03;;
26822;SDS011;14852;51.910;8.878;2023-03-24T13:55:57;4.72;;;1.90;;
26822;SDS011;14852;51.910;8.878;2023-03-24T13:58:26;5.80;;;2.67;;
26822;SDS011;14852;51.910;8.878;2023-03-24T14:03:34;5.20;;;2.05;;
26822;SDS011;14852;51.910;8.878;2023-03-24T14:06:03;5.63;;;2.25;;
26822;SDS011;14852;51.910;8.878;2023-03-24T14:08:41;5.53;;;2.13;;
26822;SDS011;14852;51.910;8.878;2023-03-24T14:16:48;5.28;;;1.77;;
26822;SDS011;14852;51.910;8.878;2023-03-24T14:19:28;3.38;;;2.00;;
26822;SDS011;14852;51.910;8.878;2023-03-24T14:27:30;6.03;;;2.70;;
26822;SDS011;14852;51.910;8.878;2023-03-24T14:32:46;3.90;;;2.03;;
26822;SDS011;14852;51.910;8.878;2023-03-24T14:38:05;2.45;;;1.75;;
26822;SDS011;14852;51.910;8.878;2023-03-24T14:40:56;3.35;;;1.60;;
26822;SDS011;14852;51.910;8.878;2023-03-24T14:46:50;6.45;;;2.13;;
26822;SDS011;14852;51.910;8.878;2023-03-24T14:49:28;4.50;;;1.85;;
26822;SDS011;14852;51.910;8.878;2023-03-24T14:52:01;3.60;;;1.92;;
26822;SDS011;14852;51.910;8.878;2023-03-24T14:57:51;4.82;;;2.00;;
26822;SDS011;14852;51.910;8.878;2023-03-24T15:00:16;4.60;;;1.98;;
26822;SDS011;14852;51.910;8.878;2023-03-24T15:06:25;2.63;;;1.40;;
26822;SDS011;14852;51.910;8.878;2023-03-24T15:08:55;6.18;;;1.95;;
26822;SDS011;14852;51.910;8.878;2023-03-24T15:11:24;4.90;;;2.38;;
26822;SDS011;14852;51.910;8.878;2023-03-24T15:14:01;5.38;;;2.10;;
26822;SDS011;14852;51.910;8.878;2023-03-24T15:16:30;3.42;;;1.67;;
26822;SDS011;14852;51.910;8.878;2023-03-24T15:19:19;2.95;;;1.63;;
26822;SDS011;14852;51.910;8.878;2023-03-24T15:22:01;3.88;;;1.60;;
26822;SDS011;14852;51.910;8.878;2023-03-24T15:24:34;4.75;;;1.60;;
26822;SDS011;14852;51.910;8.878;2023-03-24T15:29:31;3.17;;;2.05;;
26822;SDS011;14852;51.910;8.878;2023-03-24T15:31:58;5.45;;;2.08;;
26822;SDS011;14852;51.910;8.878;2023-03-24T15:34:34;4.57;;;1.58;;
26822;SDS011;14852;51.910;8.878;2023-03-24T15:37:04;3.55;;;1.45;;
26822;SDS011;14852;51.910;8.878;2023-03-24T15:39:32;2.92;;;1.65;;
26822;SDS011;14852;51.910;8.878;2023-03-24T15:42:03;6.10;;;1.88;;
26822;SDS011;14852;51.910;8.878;2023-03-24T15:44:38;2.65;;;1.45;;
26822;SDS011;14852;51.910;8.878;2023-03-24T15:47:17;4.55;;;2.00;;
26822;SDS011;14852;51.910;8.878;2023-03-24T15:49:57;2.38;;;1.80;;
26822;SDS011;14852;51.910;8.878;2023-03-24T15:52:34;7.10;;;2.10;;
26822;SDS011;14852;51.910;8.878;2023-03-24T15:58:01;5.70;;;1.85;;
26822;SDS011;14852;51.910;8.878;2023-03-24T16:00:53;2.38;;;1.30;;
26822;SDS011;14852;51.910;8.878;2023-03-24T16:03:26;3.83;;;1.58;;
26822;SDS011;14852;51.910;8.878;2023-03-24T16:05:54;2.22;;;1.50;;
26822;SDS011;14852;51.910;8.878;2023-03-24T16:11:04;3.70;;;1.73;;
26822;SDS011;14852;51.910;8.878;2023-03-24T16:13:35;3.67;;;1.30;;
26822;SDS011;14852;51.910;8.878;2023-03-24T16:18:48;2.63;;;1.48;;
26822;SDS011;14852;51.910;8.878;2023-03-24T16:21:25;1.65;;;1.17;;
26822;SDS011;14852;51.910;8.878;2023-03-24T16:23:53;2.25;;;1.08;;
26822;SDS011;14852;51.910;8.878;2023-03-24T16:28:53;1.13;;;0.90;;
26822;SDS011;14852;51.910;8.878;2023-03-24T16:31:28;2.20;;;1.25;;
26822;SDS011;14852;51.910;8.878;2023-03-24T16:33:57;2.47;;;1.20;;
26822;SDS011;14852;51.910;8.878;2023-03-24T16:36:24;3.70;;;1.60;;
26822;SDS011;14852;51.910;8.878;2023-03-24T16:38:53;0.55;;;0.50;;
26822;SDS011;14852;51.910;8.878;2023-03-24T16:41:23;0.10;;;0.10;;
26822;SDS011;14852;51.910;8.878;2023-03-24T16:43:50;0.10;;;0.10;;
26822;SDS011;14852;51.910;8.878;2023-03-24T16:46:21;0.20;;;0.20;;
26822;SDS011;14852;51.910;8.878;2023-03-24T16:48:56;0.10;;;0.10;;
26822;SDS011;14852;51.910;8.878;2023-03-24T16:51:23;0.10;;;0.10;;
26822;SDS011;14852;51.910;8.878;2023-03-24T16:53:49;0.10;;;0.10;;
26822;SDS011;14852;51.910;8.878;2023-03-24T16:56:16;0.10;;;0.10;;
26822;SDS011;14852;51.910;8.878;2023-03-24T16:58:44;0.10;;;0.10;;
26822;SDS011;14852;51.910;8.878;2023-03-24T17:01:15;0.10;;;0.10;;
26822;SDS011;14852;51.910;8.878;2023-03-24T17:03:52;0.10;;;0.10;;
26822;SDS011;14852;51.910;8.878;2023-03-24T17:06:23;0.00;;;0.00;;
26822;SDS011;14852;51.910;8.878;2023-03-24T17:08:51;0.10;;;0.10;;
26822;SDS011;14852;51.910;8.878;2023-03-24T17:13:55;0.00;;;0.00;;
26822;SDS011;14852;51.910;8.878;2023-03-24T17:16:26;0.10;;;0.10;;
26822;SDS011;14852;51.910;8.878;2023-03-24T17:19:00;0.08;;;0.08;;
26822;SDS011;14852;51.910;8.878;2023-03-24T17:21:30;0.00;;;0.00;;
26822;SDS011;14852;51.910;8.878;2023-03-24T17:23:58;0.10;;;0.10;;
26822;SDS011;14852;51.910;8.878;2023-03-24T17:26:24;0.20;;;0.20;;
26822;SDS011;14852;51.910;8.878;2023-03-24T17:28:50;0.10;;;0.10;;
26822;SDS011;14852;51.910;8.878;2023-03-24T17:31:16;0.10;;;0.10;;
26822;SDS011;14852;51.910;8.878;2023-03-24T17:33:43;0.00;;;0.00;;
26822;SDS011;14852;51.910;8.878;2023-03-24T17:36:15;0.10;;;0.10;;
26822;SDS011;14852;51.910;8.878;2023-03-24T17:38:41;0.10;;;0.10;;
26822;SDS011;14852;51.910;8.878;2023-03-24T17:41:08;0.10;;;0.10;;
26822;SDS011;14852;51.910;8.878;2023-03-24T17:43:34;3.47;;;3.30;;
26822;SDS011;14852;51.910;8.878;2023-03-24T17:46:00;0.10;;;0.10;;
26822;SDS011;14852;51.910;8.878;2023-03-24T17:48:27;0.10;;;0.10;;
26822;SDS011;14852;51.910;8.878;2023-03-24T17:50:54;0.00;;;0.00;;
26822;SDS011;14852;51.910;8.878;2023-03-24T17:53:21;0.10;;;0.10;;
26822;SDS011;14852;51.910;8.878;2023-03-24T17:55:51;0.00;;;0.00;;
26822;SDS011;14852;51.910;8.878;2023-03-24T17:58:20;0.10;;;0.10;;
26822;SDS011;14852;51.910;8.878;2023-03-24T18:00:46;0.10;;;0.10;;
26822;SDS011;14852;51.910;8.878;2023-03-24T18:03:12;0.43;;;0.38;;
26822;SDS011;14852;51.910;8.878;2023-03-24T18:05:39;0.10;;;0.10;;
26822;SDS011;14852;51.910;8.878;2023-03-24T18:08:05;0.32;;;0.32;;
26822;SDS011;14852;51.910;8.878;2023-03-24T18:10:31;0.10;;;0.10;;
26822;SDS011;14852;51.910;8.878;2023-03-24T18:13:00;0.10;;;0.10;;
26822;SDS011;14852;51.910;8.878;2023-03-24T18:15:31;0.10;;;0.10;;
26822;SDS011;14852;51.910;8.878;2023-03-24T18:17:58;0.10;;;0.10;;
26822;SDS011;14852;51.910;8.878;2023-03-24T18:20:25;0.10;;;0.10;;
26822;SDS011;14852;51.910;8.878;2023-03-24T18:22:51;0.10;;;0.10;;
26822;SDS011;14852;51.910;8.878;2023-03-24T18:25:17;0.32;;;0.32;;
26822;SDS011;14852;51.910;8.878;2023-03-24T18:27:43;0.13;;;0.13;;
26822;SDS011;14852;51.910;8.878;2023-03-24T18:30:10;0.10;;;0.10;;